Time;durP1;ratioP1;P1;durP2;ratioP2;P2;SDS_P1;SDS_P2;PMS_P1;PMS_P2;Temp;Humidity;BMP_temperature;BMP_pressure;BME280_temperature;BME280_humidity;BME280_pressure;Samples;Min_cycle;Max_cycle;Signal;HPM_P1;HPM_P2
2022/04/05 00:00:28;;;;;;;14.05;2.45;;;7.40;99.90;;;;;;5114078;28;20040;-61
2022/04/05 00:02:55;;;;;;;8.55;2.22;;;7.30;99.90;;;;;;5112753;28;20400;-61
2022/04/05 00:05:21;;;;;;;8.82;2.63;;;7.20;99.90;;;;;;5112116;28;20044;-61
2022/04/05 00:07:47;;;;;;;9.70;2.30;;;7.10;99.90;;;;;;5113818;28;20042;-61
2022/04/05 00:10:13;;;;;;;7.55;2.17;;;7.10;99.90;;;;;;5112268;28;20048;-61
2022/04/05 00:12:40;;;;;;;12.20;2.45;;;7.10;99.90;;;;;;5095160;28;20092;-61
2022/04/05 00:15:06;;;;;;;9.13;2.20;;;7.10;99.90;;;;;;5113999;28;20039;-61
2022/04/05 00:17:33;;;;;;;9.15;2.40;;;7.10;99.90;;;;;;5095505;28;20038;-61
2022/04/05 00:19:58;;;;;;;7.97;2.13;;;7.10;99.90;;;;;;5111975;28;20115;-61
2022/04/05 00:22:24;;;;;;;8.55;2.47;;;7.10;99.90;;;;;;5113296;27;20540;-61
2022/04/05 00:24:50;;;;;;;7.47;2.03;;;7.10;99.90;;;;;;5091963;28;20469;-61
2022/04/05 00:27:16;;;;;;;8.45;2.40;;;7.10;99.90;;;;;;5092302;28;20036;-61
2022/04/05 00:29:42;;;;;;;10.50;3.10;;;7.10;99.90;;;;;;5075030;28;20058;-61
2022/04/05 00:32:09;;;;;;;7.75;1.92;;;7.10;99.90;;;;;;5091567;28;20048;-61
2022/04/05 00:34:35;;;;;;;9.23;2.08;;;7.10;99.90;;;;;;5110731;28;20109;-61
2022/04/05 00:37:00;;;;;;;9.80;2.38;;;7.10;99.90;;;;;;5095137;28;20134;-61
2022/04/05 00:39:29;;;;;;;6.20;1.67;;;7.10;99.90;;;;;;5095013;28;20552;-61
2022/04/05 00:41:56;;;;;;;8.98;2.10;;;7.10;99.90;;;;;;5094551;28;20078;-61
2022/04/05 00:44:23;;;;;;;7.95;2.22;;;7.10;99.90;;;;;;5111983;28;20078;-61
2022/04/05 00:46:51;;;;;;;7.13;1.90;;;7.10;99.90;;;;;;5111772;28;20040;-61
2022/04/05 00:49:29;;;;;;;6.05;2.00;;;7.20;99.90;;;;;;5092855;28;20503;-61
2022/04/05 00:51:55;;;;;;;9.48;2.47;;;7.10;99.90;;;;;;5103333;28;20114;-61
2022/04/05 00:54:23;;;;;;;11.27;2.40;;;7.10;99.90;;;;;;5111095;28;20159;-61
2022/04/05 00:56:52;;;;;;;9.25;2.00;;;7.10;99.90;;;;;;5112917;28;20044;-61
2022/04/05 00:59:18;;;;;;;8.80;3.08;;;7.10;99.90;;;;;;5111642;28;20488;-61
2022/04/05 01:01:45;;;;;;;9.50;2.25;;;7.10;99.90;;;;;;5093841;28;20122;-61
2022/04/05 01:04:12;;;;;;;10.68;2.28;;;7.20;99.90;;;;;;5112711;28;20082;-62
2022/04/05 01:06:44;;;;;;;6.47;1.98;;;7.20;99.90;;;;;;5099981;28;20373;-61
2022/04/05 01:09:10;;;;;;;13.20;3.13;;;7.10;99.90;;;;;;5091984;28;20480;-61
2022/04/05 01:11:36;;;;;;;11.35;2.25;;;7.20;99.90;;;;;;5091495;28;20040;-61
2022/04/05 01:14:02;;;;;;;10.32;2.55;;;7.20;99.90;;;;;;5091038;28;20040;-61
2022/04/05 01:16:28;;;;;;;12.55;2.28;;;7.20;99.90;;;;;;5090311;28;20170;-61
2022/04/05 01:19:03;;;;;;;9.68;3.33;;;7.20;99.90;;;;;;5094066;28;20118;-61
2022/04/05 01:21:29;;;;;;;11.90;2.70;;;7.20;99.90;;;;;;5111553;28;20036;-61
2022/04/05 01:24:14;;;;;;;9.93;3.00;;;7.20;99.90;;;;;;5110684;28;20039;-61
2022/04/05 01:26:51;;;;;;;12.20;3.15;;;7.20;99.90;;;;;;5111299;28;20126;-61
2022/04/05 01:29:22;;;;;;;12.25;2.50;;;7.30;99.90;;;;;;5111704;28;20039;-61
2022/04/05 01:31:50;;;;;;;13.02;3.20;;;7.20;99.90;;;;;;5079379;28;20558;-61
2022/04/05 01:34:20;;;;;;;12.98;3.10;;;7.30;99.90;;;;;;5090963;28;20401;-61
2022/04/05 01:36:51;;;;;;;12.50;3.13;;;7.20;99.90;;;;;;5091639;28;20036;-61
2022/04/05 01:39:19;;;;;;;15.57;3.67;;;7.30;99.90;;;;;;5090985;28;20119;-61
2022/04/05 01:41:45;;;;;;;18.30;3.80;;;7.30;99.90;;;;;;5090923;28;20445;-61
2022/04/05 01:44:12;;;;;;;13.68;4.03;;;7.30;99.90;;;;;;5090151;28;20365;-61
2022/04/05 01:46:39;;;;;;;10.68;2.90;;;7.20;99.90;;;;;;5106707;28;20040;-61
2022/04/05 01:49:09;;;;;;;10.80;3.05;;;7.20;99.90;;;;;;5095451;28;20075;-61
2022/04/05 01:51:37;;;;;;;14.95;3.33;;;7.30;99.90;;;;;;5104982;28;20169;-61
2022/04/05 01:54:07;;;;;;;17.20;4.22;;;7.30;99.90;;;;;;5094820;28;20048;-61
2022/04/05 01:56:39;;;;;;;13.30;3.53;;;7.20;99.90;;;;;;5078158;28;20500;-61
2022/04/05 01:59:05;;;;;;;20.10;4.13;;;7.20;99.90;;;;;;5084049;28;20032;-61
2022/04/05 02:01:31;;;;;;;14.93;3.75;;;7.20;99.90;;;;;;5115596;28;20101;-61
2022/04/05 02:03:56;;;;;;;14.70;3.35;;;7.20;99.90;;;;;;5116205;28;20395;-61
2022/04/05 02:06:22;;;;;;;12.38;3.53;;;7.20;99.90;;;;;;5113921;28;20048;-61
2022/04/05 02:08:48;;;;;;;14.23;3.88;;;7.20;99.90;;;;;;5115039;28;20042;-61
2022/04/05 02:11:13;;;;;;;16.95;4.10;;;7.10;99.90;;;;;;5116486;28;20431;-61
2022/04/05 02:13:39;;;;;;;12.65;3.22;;;7.20;99.90;;;;;;5097160;28;20524;-61
2022/04/05 02:16:05;;;;;;;17.27;3.50;;;7.20;99.90;;;;;;5116549;28;20043;-61
2022/04/05 02:18:30;;;;;;;13.55;3.40;;;7.20;99.90;;;;;;5114157;28;20039;-61
2022/04/05 02:20:57;;;;;;;13.68;3.22;;;7.20;99.90;;;;;;5102013;28;20093;-61
2022/04/05 02:23:22;;;;;;;19.17;4.20;;;7.20;99.90;;;;;;5094644;28;20121;-61
2022/04/05 02:25:48;;;;;;;16.00;3.85;;;;;;;;;;5107414;28;20808;-61
2022/04/05 02:28:14;;;;;;;16.73;3.20;;;7.10;99.90;;;;;;5114419;28;20091;-61
2022/04/05 02:30:41;;;;;;;11.88;3.70;;;7.10;99.90;;;;;;5102846;28;20036;-61
2022/04/05 02:33:07;;;;;;;13.90;3.45;;;7.20;99.90;;;;;;5093414;28;20040;-61
2022/04/05 02:35:33;;;;;;;14.90;3.33;;;7.10;99.90;;;;;;5094346;28;20594;-61
2022/04/05 02:38:02;;;;;;;19.92;3.75;;;7.10;99.90;;;;;;5077204;28;20039;-61
2022/04/05 02:40:28;;;;;;;15.52;2.75;;;7.10;99.90;;;;;;5094650;28;20032;-61
2022/04/05 02:42:54;;;;;;;14.07;3.30;;;7.10;99.90;;;;;;5095174;28;20119;-61
2022/04/05 02:45:20;;;;;;;10.73;3.20;;;7.10;99.90;;;;;;5094968;28;20047;-61
2022/04/05 02:47:46;;;;;;;10.13;3.08;;;7.10;99.90;;;;;;5093095;28;20039;-61
2022/04/05 02:50:14;;;;;;;13.10;3.45;;;7.80;99.90;;;;;;5094128;28;20066;-61
2022/04/05 02:52:40;;;;;;;14.77;3.28;;;7.40;99.90;;;;;;5079117;28;20043;-61
2022/04/05 02:55:06;;;;;;;21.30;3.92;;;7.10;99.90;;;;;;5113544;28;20042;-61
2022/04/05 02:57:35;;;;;;;19.55;3.20;;;7.10;99.90;;;;;;5113853;28;20087;-61
2022/04/05 03:00:01;;;;;;;14.40;2.83;;;7.20;99.90;;;;;;5114113;28;20178;-61
2022/04/05 03:02:27;;;;;;;15.98;3.40;;;7.10;99.90;;;;;;5113116;28;20127;-61
2022/04/05 03:04:54;;;;;;;16.23;4.00;;;7.10;99.90;;;;;;5113992;28;20071;-61
2022/04/05 03:07:20;;;;;;;22.23;4.00;;;7.10;99.90;;;;;;5114803;28;20092;-63
2022/04/05 03:09:45;;;;;;;19.33;4.07;;;7.10;99.90;;;;;;5095994;28;20032;-63
2022/04/05 03:12:11;;;;;;;19.83;3.60;;;7.10;99.90;;;;;;5113764;28;20123;-63
2022/04/05 03:14:39;;;;;;;18.25;4.30;;;7.10;99.90;;;;;;5113973;28;20209;-63
2022/04/05 03:17:05;;;;;;;15.07;3.40;;;7.10;99.90;;;;;;5113092;28;20046;-63
2022/04/05 03:19:30;;;;;;;17.25;3.30;;;7.10;99.90;;;;;;5113397;28;20032;-63
2022/04/05 03:21:56;;;;;;;17.52;3.20;;;7.10;99.90;;;;;;5099455;28;20079;-61
2022/04/05 03:24:21;;;;;;;13.70;3.20;;;7.10;99.90;;;;;;5093025;28;20093;-61
2022/04/05 03:26:47;;;;;;;12.23;3.70;;;7.10;99.90;;;;;;5093310;28;20445;-61
2022/04/05 03:29:13;;;;;;;13.13;3.30;;;7.10;99.90;;;;;;5093623;28;20085;-61
2022/04/05 03:31:38;;;;;;;15.15;2.90;;;7.10;99.90;;;;;;5094443;28;20485;-61
2022/04/05 03:34:04;;;;;;;13.30;4.88;;;7.00;99.90;;;;;;5092803;28;20040;-61
2022/04/05 03:36:30;;;;;;;22.95;3.38;;;7.50;99.90;;;;;;5092237;28;20044;-61
2022/04/05 03:38:55;;;;;;;14.63;3.42;;;7.00;99.90;;;;;;5093023;28;20040;-61
2022/04/05 03:41:21;;;;;;;12.45;2.80;;;7.10;99.90;;;;;;5075779;28;20039;-61
2022/04/05 03:43:47;;;;;;;12.88;3.28;;;7.00;99.90;;;;;;5092300;28;20044;-61
2022/04/05 03:46:12;;;;;;;13.57;3.40;;;7.00;99.90;;;;;;5093928;28;20036;-61
2022/04/05 03:48:38;;;;;;;14.30;3.75;;;7.00;99.90;;;;;;5077964;28;20040;-61
2022/04/05 03:51:09;;;;;;;21.00;4.72;;;7.00;99.90;;;;;;5112809;28;20532;-61
2022/04/05 03:53:35;;;;;;;15.50;3.78;;;7.00;99.90;;;;;;5113382;28;20047;-61
2022/04/05 03:56:01;;;;;;;16.63;3.25;;;7.10;99.90;;;;;;5112741;28;20086;-61
2022/04/05 03:58:27;;;;;;;15.40;3.50;;;7.00;99.90;;;;;;5113500;28;20189;-61
2022/04/05 04:00:53;;;;;;;16.90;3.72;;;7.00;99.90;;;;;;5095738;28;20122;-61
2022/04/05 04:03:19;;;;;;;16.67;3.70;;;7.00;99.90;;;;;;5112366;28;20062;-61
2022/04/05 04:05:45;;;;;;;18.90;6.10;;;7.10;99.90;;;;;;5091539;28;20079;-61
2022/04/05 04:08:10;;;;;;;17.63;3.92;;;7.00;99.90;;;;;;5092188;28;20040;-61
2022/04/05 04:10:36;;;;;;;14.27;3.40;;;7.00;99.90;;;;;;5093622;28;20039;-61
2022/04/05 04:13:02;;;;;;;16.40;3.70;;;7.00;99.90;;;;;;5090781;28;20044;-61
2022/04/05 04:15:27;;;;;;;13.18;2.92;;;7.00;99.90;;;;;;5092380;28;20044;-61
2022/04/05 04:17:53;;;;;;;20.23;3.58;;;7.20;99.90;;;;;;5105237;28;20540;-61
2022/04/05 04:20:19;;;;;;;14.25;3.22;;;7.00;99.90;;;;;;5111685;28;20040;-61
2022/04/05 04:22:44;;;;;;;20.77;3.53;;;7.00;99.90;;;;;;5112624;28;20071;-61
2022/04/05 04:25:10;;;;;;;13.43;3.58;;;7.00;99.90;;;;;;5109754;28;20506;-61
2022/04/05 04:27:36;;;;;;;16.48;3.88;;;7.00;99.90;;;;;;5112605;28;20039;-61
2022/04/05 04:30:03;;;;;;;12.73;3.05;;;6.90;99.90;;;;;;5113558;28;20036;-61
2022/04/05 04:32:28;;;;;;;11.00;2.83;;;6.90;99.90;;;;;;5111551;28;20040;-61
2022/04/05 04:34:54;;;;;;;17.98;3.45;;;7.00;99.90;;;;;;5112108;28;20043;-61
2022/04/05 04:37:20;;;;;;;18.05;3.50;;;6.90;99.90;;;;;;5113370;28;20031;-61
2022/04/05 04:39:45;;;;;;;12.18;3.10;;;6.90;99.90;;;;;;5112378;28;20473;-61
2022/04/05 04:42:12;;;;;;;17.05;2.85;;;6.90;99.90;;;;;;5094978;28;20058;-61
2022/04/05 04:44:38;;;;;;;15.18;3.42;;;6.90;99.90;;;;;;5112203;28;20091;-61
2022/04/05 04:47:04;;;;;;;14.48;3.10;;;6.90;99.90;;;;;;5112326;28;20042;-61
2022/04/05 04:49:30;;;;;;;14.20;3.25;;;6.90;99.90;;;;;;5112233;28;20036;-61
2022/04/05 04:52:51;;;;;;;17.17;3.97;;;6.90;99.90;;;;;;5092997;28;20035;-61
2022/04/05 04:55:17;;;;;;;14.50;3.25;;;6.90;99.90;;;;;;5091181;28;20071;-61
2022/04/05 04:57:43;;;;;;;12.50;3.03;;;6.90;99.90;;;;;;5091109;28;20052;-61
2022/04/05 05:00:11;;;;;;;20.33;3.22;;;6.90;99.90;;;;;;5091628;28;20469;-61
2022/04/05 05:02:52;;;;;;;12.82;2.97;;;6.90;99.90;;;;;;5091684;28;20047;-61
2022/04/05 05:05:19;;;;;;;12.60;2.97;;;6.90;99.90;;;;;;5092870;28;20079;-61
2022/04/05 05:07:45;;;;;;;16.42;2.83;;;6.90;99.90;;;;;;5090330;28;20104;-61
2022/04/05 05:10:11;;;;;;;11.15;3.15;;;6.90;99.90;;;;;;5091466;28;20043;-61
2022/04/05 05:12:40;;;;;;;15.20;2.80;;;6.90;99.90;;;;;;5092725;28;20199;-61
2022/04/05 05:15:13;;;;;;;13.98;3.22;;;6.90;99.90;;;;;;5090524;28;20497;-61
2022/04/05 05:17:39;;;;;;;12.85;3.00;;;6.90;99.90;;;;;;5091403;28;20039;-61
2022/04/05 05:20:06;;;;;;;18.05;4.03;;;6.90;99.90;;;;;;5095020;28;20155;-61
2022/04/05 05:22:32;;;;;;;12.15;3.05;;;6.90;99.90;;;;;;5110906;28;20548;-61
2022/04/05 05:24:58;;;;;;;14.88;3.72;;;6.90;99.90;;;;;;5110650;28;20038;-61
2022/04/05 05:27:24;;;;;;;16.77;4.13;;;7.00;99.90;;;;;;5112676;28;20118;-61
2022/04/05 05:29:49;;;;;;;11.52;3.78;;;6.90;99.90;;;;;;5110876;28;20039;-62
2022/04/05 05:32:15;;;;;;;15.32;3.17;;;6.90;99.90;;;;;;5111664;28;20440;-61
2022/04/05 05:34:41;;;;;;;17.20;3.58;;;7.00;99.90;;;;;;5111128;28;20047;-61
2022/04/05 05:37:06;;;;;;;14.70;3.85;;;6.90;99.90;;;;;;5111585;28;20046;-61
2022/04/05 05:39:33;;;;;;;12.52;2.90;;;7.00;99.90;;;;;;5113093;28;20365;-61
2022/04/05 05:41:58;;;;;;;9.38;2.92;;;7.00;99.90;;;;;;5112477;28;20031;-61
2022/04/05 05:44:24;;;;;;;8.93;2.85;;;7.00;99.90;;;;;;5110580;28;20043;-61
2022/04/05 05:46:50;;;;;;;10.50;2.78;;;7.00;99.90;;;;;;5094237;28;20557;-61
2022/04/05 05:49:17;;;;;;;15.35;3.30;;;7.00;99.90;;;;;;5109676;28;20411;-61
2022/04/05 05:51:43;;;;;;;16.98;3.00;;;7.00;99.90;;;;;;5111679;28;20491;-61
2022/04/05 05:54:08;;;;;;;15.40;3.20;;;7.00;99.90;;;;;;5106516;28;20036;-61
2022/04/05 05:56:34;;;;;;;11.63;3.47;;;7.00;99.90;;;;;;5091494;28;20056;-61
2022/04/05 05:59:00;;;;;;;12.15;3.28;;;6.90;99.90;;;;;;5091857;28;20055;-61
2022/04/05 06:01:25;;;;;;;9.20;2.22;;;6.90;99.90;;;;;;5090657;28;20032;-61
2022/04/05 06:03:51;;;;;;;9.75;2.97;;;7.00;99.90;;;;;;5091330;28;20032;-61
2022/04/05 06:06:17;;;;;;;12.63;4.28;;;8.30;99.90;;;;;;5091519;28;20036;-61
2022/04/05 06:08:43;;;;;;;9.50;2.88;;;6.90;99.90;;;;;;5093210;28;20074;-61
2022/04/05 06:11:10;;;;;;;11.45;3.03;;;6.70;99.90;;;;;;5089967;28;20446;-61
2022/04/05 06:13:36;;;;;;;13.60;2.72;;;7.40;99.90;;;;;;5091186;28;20123;-61
2022/04/05 06:16:02;;;;;;;10.60;3.05;;;7.00;99.90;;;;;;5093339;28;20036;-61
2022/04/05 06:18:28;;;;;;;12.35;2.80;;;7.00;99.90;;;;;;5110229;28;20075;-61
2022/04/05 06:20:53;;;;;;;8.18;2.78;;;7.10;99.90;;;;;;5110660;28;20071;-61
2022/04/05 06:23:19;;;;;;;14.10;2.80;;;8.20;99.90;;;;;;5111217;28;20126;-61
2022/04/05 06:25:45;;;;;;;10.63;2.88;;;7.10;99.90;;;;;;5106588;28;20046;-61
2022/04/05 06:28:10;;;;;;;9.40;2.53;;;7.10;99.90;;;;;;5112291;28;20036;-61
2022/04/05 06:30:38;;;;;;;8.18;2.75;;;7.20;99.90;;;;;;5112331;28;20108;-61
2022/04/05 06:33:13;;;;;;;13.18;2.30;;;7.20;99.90;;;;;;5111456;28;20035;-61
2022/04/05 06:35:44;;;;;;;12.57;3.58;;;7.30;99.90;;;;;;5112896;28;20044;-61
2022/04/05 06:38:10;;;;;;;8.25;2.05;;;;;;;;;;5115959;28;20387;-61
2022/04/05 06:40:36;;;;;;;9.77;2.70;;;7.10;99.90;;;;;;5112171;28;20061;-61
2022/04/05 06:43:02;;;;;;;9.00;1.88;;;7.40;99.90;;;;;;5096157;28;20104;-61
2022/04/05 06:45:29;;;;;;;10.15;1.92;;;7.30;99.90;;;;;;5105700;28;20047;-61
2022/04/05 06:47:54;;;;;;;5.30;1.73;;;7.50;99.90;;;;;;5094747;28;20145;-61
2022/04/05 06:50:24;;;;;;;9.95;2.20;;;7.40;99.90;;;;;;5094139;28;20123;-61
2022/04/05 06:52:51;;;;;;;7.32;2.00;;;7.30;99.90;;;;;;5099228;28;20519;-61
2022/04/05 06:55:17;;;;;;;7.22;2.83;;;;;;;;;;5104392;28;20048;-61
2022/04/05 06:57:42;;;;;;;9.32;2.13;;;7.40;99.90;;;;;;5093489;28;20052;-61
2022/04/05 07:00:11;;;;;;;10.40;2.30;;;7.20;99.90;;;;;;5107424;28;20404;-61
2022/04/05 07:02:37;;;;;;;8.02;2.00;;;7.60;99.90;;;;;;5109696;28;20044;-61
2022/04/05 07:05:04;;;;;;;10.57;2.42;;;7.10;99.90;;;;;;5112796;28;20078;-61
2022/04/05 07:07:30;;;;;;;7.57;1.95;;;7.30;99.90;;;;;;5110388;28;20377;-61
2022/04/05 07:09:56;;;;;;;11.65;3.45;;;;;;;;;;5111124;28;20043;-61
2022/04/05 07:12:23;;;;;;;11.80;2.92;;;7.30;99.90;;;;;;5092269;28;20048;-61
2022/04/05 07:14:50;;;;;;;11.20;2.15;;;;;;;;;;5095820;28;20473;-61
2022/04/05 07:17:15;;;;;;;9.88;2.38;;;7.50;99.90;;;;;;5101492;28;20039;-61
2022/04/05 07:19:41;;;;;;;8.13;2.13;;;;;;;;;;5103646;28;20480;-61
2022/04/05 07:22:07;;;;;;;8.60;2.17;;;;;;;;;;5108230;28;20047;-61
2022/04/05 07:52:51;;;;;;;9.18;1.85;;;7.20;99.90;;;;;;5092384;28;20396;-61
2022/04/05 07:55:16;;;;;;;12.38;2.30;;;7.70;99.90;;;;;;5094659;28;20472;-61
2022/04/05 07:57:46;;;;;;;7.63;2.80;;;7.50;99.90;;;;;;5097932;28;20054;-61
2022/04/05 08:00:12;;;;;;;9.98;3.17;;;;;;;;;;5102357;28;20495;-61
2022/04/05 08:02:39;;;;;;;12.98;2.72;;;7.70;99.90;;;;;;5109275;28;20066;-61
2022/04/05 08:05:05;;;;;;;8.18;2.55;;;8.10;99.90;;;;;;5110794;28;20043;-61
2022/04/05 08:07:30;;;;;;;12.20;2.75;;;7.80;99.90;;;;;;5103288;28;20126;-61
2022/04/05 08:09:57;;;;;;;11.10;2.75;;;;;;;;;;5103837;28;20459;-61
2022/04/05 08:12:23;;;;;;;8.43;2.65;;;;;;;;;;5103630;28;20114;-61
2022/04/05 08:14:49;;;;;;;7.15;2.70;;;;;;;;;;5108770;28;20130;-61
2022/04/05 08:17:15;;;;;;;10.55;2.50;;;8.00;99.90;;;;;;5110513;28;20035;-61
2022/04/05 08:19:41;;;;;;;8.52;2.95;;;;;;;;;;5108835;28;20043;-61
2022/04/05 08:22:10;;;;;;;12.05;2.40;;;;;;;;;;5098157;28;20044;-61
2022/04/05 08:24:36;;;;;;;8.93;2.03;;;;;;;;;;5095017;28;20059;-61
2022/04/05 08:27:02;;;;;;;8.57;2.17;;;8.30;99.90;;;;;;5109914;28;20048;-61
2022/04/05 08:29:28;;;;;;;9.65;2.30;;;8.00;99.90;;;;;;5108522;28;20058;-61
2022/04/05 08:31:54;;;;;;;14.30;3.05;;;;;;;;;;5097972;28;20147;-61
2022/04/05 08:34:19;;;;;;;11.70;3.13;;;8.50;99.90;;;;;;5107649;28;20040;-61
2022/04/05 08:36:45;;;;;;;6.70;2.42;;;8.30;99.90;;;;;;5105701;28;20361;-61
2022/04/05 08:39:11;;;;;;;9.38;2.70;;;8.40;99.90;;;;;;5107191;28;20032;-61
2022/04/05 08:41:39;;;;;;;9.55;2.13;;;8.00;99.90;;;;;;5094863;28;20404;-61
2022/04/05 08:44:06;;;;;;;9.50;2.10;;;8.60;99.90;;;;;;5100462;28;20054;-61
2022/04/05 08:46:34;;;;;;;6.05;1.90;;;8.90;99.90;;;;;;5097080;28;20043;-61
2022/04/05 08:49:00;;;;;;;7.25;1.58;;;8.40;99.90;;;;;;5097605;28;20100;-61
2022/04/05 08:51:26;;;;;;;8.27;1.90;;;8.60;99.90;;;;;;5108105;28;20047;-61
2022/04/05 08:53:52;;;;;;;6.55;2.50;;;8.60;99.90;;;;;;5109716;28;20047;-61
2022/04/05 08:56:18;;;;;;;10.40;3.58;;;8.60;99.90;;;;;;5098493;28;20051;-62
2022/04/05 08:58:43;;;;;;;6.93;1.80;;;8.60;99.90;;;;;;5098357;28;20040;-62
2022/04/05 09:01:09;;;;;;;7.63;1.65;;;;;;;;;;5096220;28;20047;-62
2022/04/05 09:03:35;;;;;;;7.50;2.28;;;;;;;;;;5094075;28;20036;-61
2022/04/05 09:06:30;;;;;;;7.57;2.63;;;8.40;99.90;;;;;;5092912;28;20554;-62
2022/04/05 09:09:13;;;;;;;8.60;2.33;;;8.60;99.90;;;;;;5106356;28;20035;-61
2022/04/05 09:11:47;;;;;;;9.52;2.08;;;8.50;99.90;;;;;;5083271;28;20040;-62
2022/04/05 09:14:14;;;;;;;5.30;1.88;;;8.50;99.90;;;;;;5093227;28;20097;-61
2022/04/05 09:16:40;;;;;;;6.03;1.90;;;7.90;99.90;;;;;;5103835;28;20031;-61
2022/04/05 09:19:14;;;;;;;9.18;1.90;;;8.10;99.90;;;;;;5092660;28;20036;-61
2022/04/05 09:21:54;;;;;;;7.82;1.73;;;8.20;99.90;;;;;;5090612;28;20032;-60
2022/04/05 09:24:20;;;;;;;5.90;1.60;;;8.30;99.90;;;;;;5091324;28;20400;-61
2022/04/05 09:26:46;;;;;;;9.02;2.50;;;7.90;99.90;;;;;;5090851;28;20039;-61
2022/04/05 09:29:12;;;;;;;7.00;2.15;;;7.80;99.90;;;;;;5090582;28;20036;-61
2022/04/05 09:31:49;;;;;;;5.70;1.80;;;7.60;99.90;;;;;;5097201;28;20471;-61
2022/04/05 09:34:21;;;;;;;6.85;1.80;;;8.40;99.90;;;;;;5095853;28;20043;-61
2022/04/05 09:36:54;;;;;;;6.57;1.88;;;8.10;99.90;;;;;;5092748;28;20036;-61
2022/04/05 09:39:23;;;;;;;5.00;1.65;;;8.00;99.90;;;;;;5111544;28;20043;-61
2022/04/05 09:41:52;;;;;;;6.70;1.92;;;8.10;99.90;;;;;;5093257;28;20047;-61
2022/04/05 09:44:32;;;;;;;4.28;1.23;;;8.40;99.90;;;;;;5111043;28;20101;-61
2022/04/05 09:47:21;;;;;;;2.65;0.80;;;7.80;99.90;;;;;;5111243;28;20086;-61
2022/04/05 09:49:49;;;;;;;2.40;1.00;;;8.40;99.90;;;;;;5101564;28;20075;-61
2022/04/05 09:52:30;;;;;;;3.72;1.20;;;8.40;99.90;;;;;;5090944;28;20089;-61
2022/04/05 09:55:09;;;;;;;4.60;1.00;;;8.30;99.90;;;;;;5090711;28;20047;-61
2022/04/05 09:57:36;;;;;;;3.00;1.30;;;8.60;99.90;;;;;;5090244;28;20101;-61
2022/04/05 10:00:11;;;;;;;4.85;0.98;;;8.30;99.90;;;;;;5099745;28;20430;-61
2022/04/05 10:02:38;;;;;;;4.82;1.10;;;;;;;;;;5111142;28;20035;-61
2022/04/05 10:05:09;;;;;;;3.10;1.20;;;;;;;;;;5112610;28;20471;-61
2022/04/05 10:07:36;;;;;;;2.13;0.90;;;;;;;;;;5112180;28;20054;-61
2022/04/05 10:10:05;;;;;;;2.17;0.90;;;8.80;99.90;;;;;;5110203;28;20048;-61
2022/04/05 10:12:30;;;;;;;2.13;0.98;;;8.70;99.90;;;;;;5115165;28;20075;-61
2022/04/05 10:14:57;;;;;;;2.97;1.13;;;8.80;99.90;;;;;;5115221;28;20093;-61
2022/04/05 10:17:28;;;;;;;4.15;1.30;;;8.20;99.90;;;;;;5115506;28;20032;-61
2022/04/05 10:19:58;;;;;;;4.50;1.13;;;8.70;99.90;;;;;;5104319;28;20506;-61
2022/04/05 10:22:25;;;;;;;5.43;1.50;;;9.00;99.90;;;;;;5077697;28;20089;-61
2022/04/05 10:24:53;;;;;;;3.53;1.23;;;8.70;99.90;;;;;;5093937;28;20051;-61
2022/04/05 10:27:20;;;;;;;3.03;1.00;;;8.50;99.90;;;;;;5094328;28;20047;-61
2022/04/05 10:30:11;;;;;;;4.05;0.95;;;8.60;99.90;;;;;;5095661;28;20453;-61
2022/04/05 10:32:51;;;;;;;2.88;1.02;;;8.80;99.90;;;;;;5107739;28;20055;-61
2022/04/05 10:35:23;;;;;;;4.85;1.50;;;9.10;99.90;;;;;;5114587;28;20043;-61
2022/04/05 10:37:49;;;;;;;3.50;1.45;;;;;;;;;;5114403;28;20038;-61
2022/04/05 10:40:17;;;;;;;3.53;1.40;;;8.90;99.90;;;;;;5114184;28;20046;-61
2022/04/05 10:42:48;;;;;;;4.53;1.42;;;9.20;99.90;;;;;;5114762;28;20036;-61
2022/04/05 10:45:17;;;;;;;4.13;1.60;;;9.10;99.90;;;;;;5094302;28;20044;-61
2022/04/05 10:48:15;;;;;;;3.30;1.45;;;9.20;99.90;;;;;;5095134;28;20381;-61
2022/04/05 10:50:42;;;;;;;5.70;1.58;;;9.50;99.90;;;;;;5093906;28;20051;-61
2022/04/05 10:53:21;;;;;;;3.00;1.15;;;9.50;99.90;;;;;;5093157;28;20052;-61
2022/04/05 10:56:07;;;;;;;3.70;1.65;;;9.20;99.90;;;;;;5093571;28;20074;-61
2022/04/05 10:58:48;;;;;;;3.75;1.70;;;9.60;99.90;;;;;;5095229;28;20546;-61
2022/04/05 11:01:36;;;;;;;3.65;1.73;;;8.80;99.90;;;;;;5094379;28;20036;-61
2022/04/05 11:04:17;;;;;;;4.75;1.73;;;9.00;99.90;;;;;;5106345;28;20036;-61
2022/04/05 11:06:58;;;;;;;3.25;1.30;;;9.30;99.90;;;;;;5092796;28;20052;-61
2022/04/05 11:09:39;;;;;;;3.65;1.38;;;9.50;99.90;;;;;;5113147;28;20040;-61
2022/04/05 11:12:11;;;;;;;3.05;1.30;;;10.10;99.90;;;;;;5115165;28;20492;-61
2022/04/05 11:14:42;;;;;;;3.97;1.58;;;9.50;99.90;;;;;;5113027;28;20055;-61
2022/04/05 11:17:14;;;;;;;4.40;1.63;;;9.90;99.90;;;;;;5114849;28;20058;-61
2022/04/05 11:19:45;;;;;;;4.63;2.22;;;9.60;99.90;;;;;;5111348;28;20499;-61
2022/04/05 11:22:20;;;;;;;4.05;1.85;;;9.40;99.90;;;;;;5091370;28;20400;-61
2022/04/05 11:25:00;;;;;;;3.47;1.40;;;10.00;99.90;;;;;;5097536;28;20040;-61
2022/04/05 11:27:45;;;;;;;5.13;2.22;;;10.30;99.90;;;;;;5106195;28;20054;-61
2022/04/05 11:30:39;;;;;;;3.90;1.95;;;9.70;99.90;;;;;;5094403;28;20084;-61
2022/04/05 11:33:18;;;;;;;3.67;1.60;;;10.00;99.90;;;;;;5091057;28;20476;-61
2022/04/05 11:35:49;;;;;;;3.35;1.45;;;;;;;;;;5114011;28;20061;-61
2022/04/05 11:38:17;;;;;;;5.78;1.52;;;10.40;99.90;;;;;;5113512;28;20071;-61
2022/04/05 11:40:52;;;;;;;4.30;1.80;;;10.20;99.90;;;;;;5100120;28;20080;-61
2022/04/05 11:43:24;;;;;;;4.28;1.98;;;10.10;99.90;;;;;;5075161;28;20048;-61
2022/04/05 11:45:52;;;;;;;4.25;1.80;;;10.20;99.90;;;;;;5092448;28;20039;-61
2022/04/05 11:48:22;;;;;;;5.30;1.80;;;10.20;99.90;;;;;;5092011;28;20492;-61
2022/04/05 11:50:51;;;;;;;4.22;2.08;;;10.10;99.90;;;;;;5104931;28;20096;-61
2022/04/05 11:53:28;;;;;;;4.07;1.77;;;10.90;99.90;;;;;;5092359;28;20559;-61
2022/04/05 11:56:08;;;;;;;5.47;2.30;;;10.40;99.90;;;;;;5102635;28;20090;-61
2022/04/05 11:58:36;;;;;;;4.45;2.13;;;11.20;99.90;;;;;;5102977;28;20069;-61
2022/04/05 12:01:03;;;;;;;5.45;2.63;;;10.80;99.90;;;;;;5092558;28;20063;-61
2022/04/05 12:03:38;;;;;;;5.40;2.67;;;10.80;99.90;;;;;;5112168;28;20043;-61
2022/04/05 12:06:04;;;;;;;5.97;2.63;;;10.40;99.90;;;;;;5086824;28;20044;-61
2022/04/05 12:08:30;;;;;;;4.90;2.55;;;;;;;;;;5098678;28;20040;-61
2022/04/05 12:10:58;;;;;;;5.05;2.15;;;11.00;99.90;;;;;;5097556;28;20048;-61
2022/04/05 12:13:31;;;;;;;5.90;2.35;;;11.00;99.90;;;;;;5112838;28;20114;-61
2022/04/05 12:15:59;;;;;;;4.50;2.00;;;11.10;99.90;;;;;;5114126;28;20372;-61
2022/04/05 12:18:27;;;;;;;6.22;2.47;;;10.60;99.90;;;;;;5106987;28;20043;-61
2022/04/05 12:21:01;;;;;;;5.30;2.80;;;10.70;99.90;;;;;;5092334;28;20118;-61
2022/04/05 12:23:35;;;;;;;7.07;3.15;;;11.00;99.90;;;;;;5100542;28;20043;-61
2022/04/05 12:26:25;;;;;;;6.28;3.33;;;10.80;99.90;;;;;;5112229;28;20488;-61
2022/04/05 12:28:59;;;;;;;5.88;3.33;;;10.40;99.90;;;;;;5102447;28;20044;-61
2022/04/05 12:31:28;;;;;;;7.80;3.58;;;10.70;99.90;;;;;;5111455;28;20050;-61
2022/04/05 12:33:58;;;;;;;6.32;3.20;;;10.80;99.90;;;;;;5104525;28;20115;-61
2022/04/05 12:36:25;;;;;;;7.93;3.67;;;10.60;99.90;;;;;;5092972;28;20044;-61
2022/04/05 12:38:51;;;;;;;5.63;2.38;;;10.70;99.90;;;;;;5108028;28;20051;-61
2022/04/05 12:41:19;;;;;;;8.95;3.72;;;10.00;99.90;;;;;;5110240;28;20053;-61
2022/04/05 12:43:46;;;;;;;10.77;3.38;;;;;;;;;;5090311;28;21270;-61
2022/04/05 12:46:14;;;;;;;8.60;4.30;;;10.20;99.90;;;;;;5100231;28;20054;-61
2022/04/05 12:48:41;;;;;;;6.20;3.25;;;10.10;99.90;;;;;;5109975;28;20464;-61
2022/04/05 12:51:07;;;;;;;8.18;4.15;;;10.30;99.90;;;;;;5106893;28;20038;-61
2022/04/05 12:53:37;;;;;;;16.05;6.47;;;9.80;99.90;;;;;;5096836;28;20032;-61
2022/04/05 12:56:08;;;;;;;8.07;4.38;;;10.30;99.90;;;;;;5112380;28;20043;-62
2022/04/05 12:58:44;;;;;;;9.63;4.40;;;10.00;99.90;;;;;;5095646;28;20043;-61
2022/04/05 13:01:17;;;;;;;8.82;4.80;;;9.80;99.90;;;;;;5100374;28;20028;-61
2022/04/05 13:03:43;;;;;;;10.88;5.70;;;10.00;99.90;;;;;;5112557;28;20054;-61
2022/04/05 13:06:20;;;;;;;13.88;7.03;;;9.70;99.90;;;;;;5099849;28;20058;-61
2022/04/05 13:09:14;;;;;;;15.50;7.43;;;9.80;99.90;;;;;;5092454;28;20051;-61
2022/04/05 13:11:40;;;;;;;15.30;6.55;;;9.90;99.90;;;;;;5091498;28;20812;-61
2022/04/05 13:14:08;;;;;;;14.75;7.15;;;9.60;99.90;;;;;;5092222;28;20040;-61
2022/04/05 13:16:35;;;;;;;16.92;7.38;;;10.00;99.90;;;;;;5092547;28;20511;-61
2022/04/05 13:19:11;;;;;;;19.92;7.38;;;9.90;99.90;;;;;;5091618;28;20044;-62
2022/04/05 13:21:55;;;;;;;19.10;7.00;;;9.80;99.90;;;;;;5092334;28;20035;-61
2022/04/05 13:24:24;;;;;;;22.92;7.57;;;;;;;;;;5096188;28;20040;-61
2022/04/05 13:26:52;;;;;;;16.42;7.55;;;9.50;99.90;;;;;;5095715;28;20048;-61
2022/04/05 13:29:20;;;;;;;19.83;7.55;;;9.50;99.90;;;;;;5106025;28;20131;-61
2022/04/05 13:32:04;;;;;;;16.65;7.38;;;9.70;99.90;;;;;;5104178;28;20434;-61
2022/04/05 13:34:42;;;;;;;24.20;7.97;;;9.80;99.90;;;;;;5093466;28;20408;-61